| time (UTC) | temp F | wind direction | speed knots | gust knots | rain 1hr in | rain 24hr in | rain mn in | humidity % | barometer mb |
| 20260506013229 | 70 | 45 | 0.0 | 4.3 | 0.00 | 0.00 | 0.00 | 62 | 1009.7 |
| 20260506012230 | 69 | 149 | 0.0 | 0.9 | 0.00 | 0.00 | 0.00 | 60 | 1009.6 |
| 20260506011330 | 69 | 90 | 0.0 | 0.0 | 0.00 | 0.00 | 0.00 | 59 | 1009.3 |
| 20260506010345 | 69 | 90 | 0.0 | 0.0 | 0.00 | 0.00 | 0.00 | 57 | 1009.2 |
| 20260506005430 | 70 | 90 | 0.0 | 0.0 | 0.00 | 0.00 | 0.00 | 57 | 1009.3 |
| 20260506004445 | 70 | 90 | 0.0 | 0.0 | 0.00 | 0.00 | 0.00 | 55 | 1009.1 |
| 20260506003530 | 71 | 90 | 0.0 | 0.0 | 0.00 | 0.00 | 0.00 | 53 | 1008.8 |
| 20260506001632 | 74 | 90 | 0.0 | 0.0 | 0.00 | 0.00 | 0.00 | 50 | 1008.3 |
| 20260506000631 | 75 | 90 | 0.0 | 0.0 | 0.00 | 0.00 | 0.00 | 48 | 1008.4 |
| 20260505235629 | 76 | 90 | 0.0 | 0.0 | 0.00 | 0.00 | 0.00 | 47 | 1008.3 |
| 20260505234631 | 77 | 315 | 0.0 | 0.0 | 0.00 | 0.00 | 0.00 | 45 | 1008.3 |
| 20260505233647 | 77 | 157 | 0.0 | 0.0 | 0.00 | 0.00 | 0.00 | 45 | 1008.5 |
| 20260505232731 | 78 | 124 | 0.0 | 0.0 | 0.00 | 0.00 | 0.00 | 44 | 1008.4 |
| 20260505231731 | 78 | 135 | 0.0 | 0.0 | 0.00 | 0.00 | 0.00 | 43 | 1008.4 |
| 20260505230829 | 78 | 135 | 0.0 | 0.0 | 0.00 | 0.00 | 0.00 | 42 | 1008.5 |
| 20260505225928 | 79 | 135 | 0.0 | 0.0 | 0.00 | 0.00 | 0.00 | 43 | 1008.7 |
| 20260505224930 | 79 | 90 | 0.0 | 0.0 | 0.00 | 0.00 | 0.00 | 42 | 1008.7 |
| 20260505223945 | 79 | 225 | 0.0 | 0.0 | 0.00 | 0.00 | 0.00 | 41 | 1008.7 |
| 20260505223029 | 80 | 187 | 0.0 | 0.0 | 0.00 | 0.00 | 0.00 | 40 | 1008.9 |
| 20260505222046 | 80 | 127 | 1.7 | 4.3 | 0.00 | 0.00 | 0.00 | 39 | 1008.8 |
| 20260505221031 | 81 | 125 | 0.0 | 2.6 | 0.00 | 0.00 | 0.00 | 38 | 1008.7 |
| 20260505220048 | 83 | 159 | 0.0 | 0.9 | 0.00 | 0.00 | 0.00 | 37 | 1008.8 |
| 20260505215129 | 83 | 143 | 0.0 | 2.6 | 0.00 | 0.00 | 0.00 | 37 | 1008.5 |
| 20260505213131 | 83 | 225 | 0.0 | 0.9 | 0.00 | 0.00 | 0.00 | 38 | 1008.5 |
| 20260505211230 | 82 | 127 | 1.7 | 4.3 | 0.00 | 0.00 | 0.00 | 37 | 1008.8 |
| 20260505210245 | 83 | 206 | 0.0 | 2.6 | 0.00 | 0.00 | 0.00 | 36 | 1008.8 |
| 20260505205330 | 83 | 140 | 0.0 | 0.9 | 0.00 | 0.00 | 0.00 | 37 | 1008.9 |
| 20260505204329 | 82 | 28 | 0.9 | 2.6 | 0.00 | 0.00 | 0.00 | 38 | 1008.9 |
| 20260505203347 | 81 | 135 | 0.0 | 1.7 | 0.00 | 0.00 | 0.00 | 39 | 1008.9 |
| 20260505202430 | 82 | 145 | 1.7 | 4.3 | 0.00 | 0.00 | 0.00 | 38 | 1009.2 |
| 20260505195447 | 82 | 145 | 0.9 | 2.6 | 0.00 | 0.00 | 0.00 | 37 | 1009.7 |
| 20260505194529 | 82 | 136 | 0.0 | 1.7 | 0.00 | 0.00 | 0.00 | 37 | 1009.6 |
| 20260505193548 | 83 | 170 | 0.0 | 2.6 | 0.00 | 0.00 | 0.00 | 37 | 1009.8 |
| 20260505192631 | 83 | 187 | 0.0 | 2.6 | 0.00 | 0.00 | 0.00 | 39 | 1009.9 |
| 20260505191729 | 82 | 132 | 0.0 | 0.9 | 0.00 | 0.00 | 0.00 | 39 | 1009.9 |
| 20260505190730 | 82 | 221 | 0.0 | 0.0 | 0.00 | 0.00 | 0.00 | 39 | 1010.3 |
| 20260505185731 | 82 | 136 | 2.6 | 6.1 | 0.00 | 0.00 | 0.00 | 40 | 1010.6 |
| 20260505184829 | 82 | 224 | 0.0 | 1.7 | 0.00 | 0.00 | 0.00 | 40 | 1010.5 |
| 20260505184730 | 81 | 135 | 0.0 | 0.9 | 0.00 | 0.00 | 0.00 | 40 | 1010.7 |
| 20260505183731 | 82 | 224 | 0.9 | 2.6 | 0.00 | 0.00 | 0.00 | 39 | 1010.8 |
| 20260505182731 | 82 | 51 | 0.9 | 5.2 | 0.00 | 0.00 | 0.00 | 40 | 1010.9 |
| 20260505181730 | 81 | 162 | 0.0 | 1.7 | 0.00 | 0.00 | 0.00 | 41 | 1011.1 |
| 20260505180828 | 81 | 225 | 0.9 | 2.6 | 0.00 | 0.00 | 0.00 | 41 | 1011.2 |
| 20260505174828 | 79 | 76 | 0.0 | 3.5 | 0.00 | 0.00 | 0.00 | 46 | 1011.4 |
| 20260505173830 | 79 | 145 | 0.9 | 3.5 | 0.00 | 0.00 | 0.00 | 46 | 1011.4 |
| 20260505173738 | 79 | 144 | 2.6 | 5.2 | 0.00 | 0.00 | 0.00 | 47 | 1011.5 |
| 20260505172729 | 80 | 180 | 0.0 | 0.0 | 0.00 | 0.00 | 0.00 | 48 | 1011.4 |
| 20260505171730 | 79 | 48 | 1.7 | 5.2 | 0.00 | 0.00 | 0.00 | 48 | 1011.4 |
| 20260505170730 | 79 | 180 | 0.0 | 0.9 | 0.00 | 0.00 | 0.00 | 48 | 1011.3 |
| 20260505165829 | 79 | 200 | 1.7 | 5.2 | 0.00 | 0.00 | 0.00 | 47 | 1011.5 |
| 20260505164830 | 80 | 67 | 0.0 | 2.6 | 0.00 | 0.00 | 0.00 | 47 | 1011.6 |
| 20260505163848 | 79 | 225 | 0.0 | 0.0 | 0.00 | 0.00 | 0.00 | 47 | 1011.8 |
| 20260505162028 | 78 | 57 | 0.9 | 2.6 | 0.00 | 0.00 | 0.00 | 50 | 1012.1 |
| 20260505161028 | 77 | 73 | 0.0 | 2.6 | 0.00 | 0.00 | 0.00 | 52 | 1011.9 |
| 20260505153028 | 76 | 140 | 0.0 | 1.7 | 0.00 | 0.00 | 0.00 | 58 | 1012.4 |
| 20260505151028 | 75 | 180 | 0.0 | 0.9 | 0.00 | 0.00 | 0.00 | 59 | 1012.4 |
| 20260505140130 | 71 | 225 | 0.0 | 0.0 | 0.00 | 0.00 | 0.00 | 64 | 1012.2 |
| 20260505130128 | 66 | 190 | 0.0 | 0.9 | 0.00 | 0.00 | 0.00 | 71 | 1012.3 |
| 20260505124231 | 64 | 135 | 0.0 | 0.0 | 0.00 | 0.00 | 0.00 | 77 | 1012.3 |
| 20260505123328 | 63 | 164 | 0.0 | 2.6 | 0.00 | 0.00 | 0.00 | 79 | 1012.3 |
| 20260505122329 | 62 | 91 | 0.0 | 1.7 | 0.00 | 0.00 | 0.00 | 81 | 1012.3 |
| 20260505121331 | 60 | 112 | 0.0 | 0.9 | 0.00 | 0.00 | 0.00 | 83 | 1012.3 |
| 20260505120428 | 58 | 135 | 0.0 | 0.9 | 0.00 | 0.00 | 0.00 | 86 | 1012.1 |
| 20260505114528 | 55 | 270 | 0.0 | 0.0 | 0.00 | 0.00 | 0.00 | 90 | 1011.7 |
| 20260505113529 | 55 | 270 | 0.0 | 0.0 | 0.00 | 0.00 | 0.00 | 91 | 1011.8 |
| 20260505112529 | 54 | 270 | 0.0 | 0.0 | 0.00 | 0.00 | 0.00 | 91 | 1011.8 |
| 20260505111531 | 53 | 270 | 0.0 | 0.0 | 0.00 | 0.00 | 0.00 | 90 | 1011.6 |
| 20260505110548 | 53 | 270 | 0.0 | 0.0 | 0.00 | 0.00 | 0.00 | 90 | 1011.5 |
| 20260505101629 | 54 | 135 | 0.0 | 0.0 | 0.00 | 0.00 | 0.00 | 90 | 1011.1 |
| 20260505100630 | 54 | 135 | 0.0 | 0.0 | 0.00 | 0.00 | 0.00 | 90 | 1011.0 |
| 20260505095630 | 53 | 135 | 0.0 | 0.0 | 0.00 | 0.00 | 0.00 | 89 | 1011.1 |
| 20260505094628 | 53 | 135 | 0.0 | 0.0 | 0.00 | 0.00 | 0.00 | 90 | 1011.2 |
| 20260505093644 | 53 | 135 | 0.0 | 0.0 | 0.00 | 0.00 | 0.00 | 89 | 1011.2 |
| 20260505092728 | 53 | 135 | 0.0 | 0.0 | 0.00 | 0.00 | 0.00 | 89 | 1011.2 |
| 20260505091729 | 53 | 135 | 0.0 | 0.0 | 0.00 | 0.00 | 0.00 | 88 | 1011.1 |
| 20260505090828 | 54 | 135 | 0.0 | 0.0 | 0.00 | 0.00 | 0.00 | 88 | 1011.2 |
| 20260505085829 | 54 | 135 | 0.0 | 0.0 | 0.00 | 0.00 | 0.00 | 88 | 1011.2 |
| 20260505084829 | 54 | 135 | 0.0 | 0.0 | 0.00 | 0.00 | 0.00 | 87 | 1011.1 |
| 20260505083829 | 54 | 135 | 0.0 | 0.0 | 0.00 | 0.00 | 0.00 | 86 | 1011.0 |
| 20260505082848 | 54 | 135 | 0.0 | 0.0 | 0.00 | 0.00 | 0.00 | 86 | 1011.0 |
| 20260505081929 | 54 | 135 | 0.0 | 0.0 | 0.00 | 0.00 | 0.00 | 86 | 1010.9 |
| 20260505081027 | 54 | 135 | 0.0 | 0.0 | 0.00 | 0.00 | 0.00 | 86 | 1011.0 |
| 20260505075047 | 55 | 135 | 0.0 | 0.0 | 0.00 | 0.00 | 0.00 | 84 | 1010.9 |
| 20260505074027 | 55 | 135 | 0.0 | 0.0 | 0.00 | 0.00 | 0.00 | 83 | 1010.8 |
| 20260505071128 | 55 | 135 | 0.0 | 0.0 | 0.00 | 0.00 | 0.00 | 82 | 1010.7 |
| 20260505070130 | 56 | 135 | 0.0 | 0.0 | 0.00 | 0.00 | 0.00 | 81 | 1010.8 |
| 20260505064128 | 57 | 135 | 0.0 | 0.0 | 0.00 | 0.00 | 0.00 | 79 | 1010.8 |
| 20260505063128 | 57 | 135 | 0.0 | 0.0 | 0.00 | 0.00 | 0.00 | 78 | 1010.9 |
| 20260505062130 | 57 | 135 | 0.0 | 0.0 | 0.00 | 0.00 | 0.00 | 77 | 1011.1 |
| 20260505061146 | 57 | 135 | 0.0 | 0.0 | 0.00 | 0.00 | 0.00 | 77 | 1011.1 |
| 20260505060129 | 58 | 225 | 0.0 | 0.0 | 0.00 | 0.00 | 0.00 | 75 | 1011.1 |
| 20260505055146 | 59 | 225 | 0.0 | 0.0 | 0.00 | 0.00 | 0.00 | 75 | 1011.2 |
| 20260505054229 | 59 | 135 | 0.0 | 0.0 | 0.00 | 0.00 | 0.00 | 72 | 1011.2 |
| 20260505053229 | 60 | 135 | 0.0 | 0.0 | 0.00 | 0.00 | 0.00 | 72 | 1011.3 |
| 20260505052229 | 60 | 135 | 0.0 | 0.0 | 0.00 | 0.00 | 0.00 | 70 | 1011.4 |
| 20260505051245 | 61 | 67 | 0.0 | 0.0 | 0.00 | 0.00 | 0.00 | 70 | 1011.4 |
| 20260505050329 | 61 | 169 | 0.0 | 0.9 | 0.00 | 0.00 | 0.00 | 69 | 1011.5 |
| 20260505040528 | 63 | 135 | 0.0 | 0.0 | 0.00 | 0.00 | 0.00 | 64 | 1011.5 |
| 20260505035543 | 63 | 276 | 0.0 | 2.6 | 0.00 | 0.00 | 0.00 | 65 | 1011.4 |
| 20260505034542 | 63 | 190 | 0.0 | 0.9 | 0.00 | 0.00 | 0.00 | 65 | 1011.4 |
| 20260505033641 | 64 | 332 | 0.0 | 0.0 | 0.00 | 0.00 | 0.00 | 63 | 1011.4 |
| 20260505032641 | 64 | 135 | 0.0 | 0.0 | 0.00 | 0.00 | 0.00 | 64 | 1011.5 |
| 20260505031726 | 64 | 90 | 0.0 | 0.0 | 0.00 | 0.00 | 0.00 | 64 | 1011.5 |
| 20260505030824 | 64 | 109 | 0.0 | 0.9 | 0.00 | 0.00 | 0.00 | 64 | 1011.6 |
| 20260505025824 | 64 | 135 | 0.0 | 2.6 | 0.00 | 0.00 | 0.00 | 63 | 1011.5 |
| 20260505024825 | 65 | 135 | 0.0 | 0.0 | 0.00 | 0.00 | 0.00 | 61 | 1011.5 |
| 20260505023824 | 65 | 118 | 0.0 | 0.0 | 0.00 | 0.00 | 0.00 | 61 | 1011.5 |
| 20260505022825 | 65 | 140 | 0.0 | 2.6 | 0.00 | 0.00 | 0.00 | 61 | 1011.4 |
| 20260505021826 | 65 | 344 | 0.0 | 0.0 | 0.00 | 0.00 | 0.00 | 59 | 1011.3 |
| 20260505015825 | 62 | 135 | 0.0 | 0.9 | 0.00 | 0.00 | 0.00 | 58 | 1011.1 |